createdAt,value
2018-02-11T00:00:06.227Z,89.09
2018-02-11T00:01:10.761Z,89.03
2018-02-11T00:02:15.409Z,89.00
2018-02-11T00:03:20.056Z,88.86
2018-02-11T00:04:24.777Z,88.74
2018-02-11T00:05:29.434Z,88.66
2018-02-11T00:06:34.508Z,88.70
2018-02-11T00:07:39.091Z,88.66
2018-02-11T00:08:43.865Z,88.68
2018-02-11T00:09:48.859Z,88.63
2018-02-11T00:10:53.466Z,88.62
2018-02-11T00:11:58.046Z,88.58
2018-02-11T00:13:02.905Z,88.53
2018-02-11T00:14:07.428Z,88.50
2018-02-11T00:15:12.013Z,88.47
2018-02-11T00:16:16.695Z,88.45
2018-02-11T00:17:21.401Z,88.38
2018-02-11T00:18:26.161Z,88.23
2018-02-11T00:19:31.228Z,88.07
2018-02-11T00:20:36.071Z,87.92
2018-02-11T00:21:40.801Z,87.76
2018-02-11T00:22:45.549Z,87.70
2018-02-11T00:23:50.299Z,87.65
2018-02-11T00:24:55.139Z,87.59
2018-02-11T00:26:00.355Z,87.57
2018-02-11T00:27:05.569Z,87.52
2018-02-11T00:28:10.352Z,87.24
2018-02-11T00:29:15.084Z,87.16
2018-02-11T00:30:19.998Z,87.16
2018-02-11T00:31:24.752Z,87.17
2018-02-11T00:32:29.829Z,87.11
2018-02-11T00:33:34.604Z,87.11
2018-02-11T00:34:39.413Z,87.11
2018-02-11T00:35:44.144Z,87.12
2018-02-11T00:36:52.882Z,87.14
2018-02-11T00:38:01.829Z,87.14
2018-02-11T00:39:06.458Z,87.07
2018-02-11T00:40:11.229Z,87.06
2018-02-11T00:41:15.987Z,86.95
2018-02-11T00:42:20.747Z,86.88
2018-02-11T00:43:25.505Z,86.86
2018-02-11T00:44:30.634Z,86.84
2018-02-11T00:45:35.409Z,86.88
2018-02-11T00:46:40.164Z,86.82
2018-02-11T00:47:44.880Z,86.80
2018-02-11T00:48:49.614Z,86.81
2018-02-11T00:49:54.473Z,86.80
2018-02-11T00:50:59.576Z,86.67
2018-02-11T00:52:04.405Z,86.67
2018-02-11T00:53:09.221Z,86.60
2018-02-11T00:54:14.015Z,86.63
2018-02-11T00:55:18.862Z,86.63
2018-02-11T00:56:23.752Z,86.63
2018-02-11T00:57:28.909Z,86.49
2018-02-11T00:58:33.704Z,86.46
2018-02-11T00:59:38.448Z,86.48
2018-02-11T01:00:43.306Z,86.51
2018-02-11T01:01:48.095Z,86.54
2018-02-11T01:02:52.971Z,86.57
2018-02-11T01:03:58.074Z,86.61
2018-02-11T01:05:02.879Z,86.62
2018-02-11T01:06:07.690Z,86.65
2018-02-11T01:07:12.497Z,86.65
2018-02-11T01:08:17.235Z,86.61
2018-02-11T01:09:22.004Z,86.62
2018-02-11T01:10:27.023Z,86.64
2018-02-11T01:11:31.732Z,86.59
2018-02-11T01:12:36.482Z,86.58
2018-02-11T01:13:41.292Z,86.60
2018-02-11T01:14:46.109Z,86.62
2018-02-11T01:15:50.926Z,86.64
2018-02-11T01:16:55.745Z,86.62
2018-02-11T01:18:00.633Z,86.64
2018-02-11T01:19:05.468Z,86.67
2018-02-11T01:20:10.304Z,86.63
2018-02-11T01:21:15.160Z,86.63
2018-02-11T01:22:19.979Z,86.65
2018-02-11T01:23:25.028Z,86.59
2018-02-11T01:24:29.791Z,86.57
2018-02-11T01:25:34.601Z,86.58
2018-02-11T01:26:39.286Z,86.58
2018-02-11T01:27:43.973Z,86.58
2018-02-11T01:28:48.567Z,86.61
2018-02-11T01:29:53.444Z,86.61
2018-02-11T01:30:58.035Z,86.63
2018-02-11T01:32:02.816Z,86.63
2018-02-11T01:33:07.446Z,86.49
2018-02-11T01:34:12.215Z,86.42
2018-02-11T01:35:16.971Z,86.46
2018-02-11T01:36:22.033Z,86.51
2018-02-11T01:37:26.786Z,86.50
2018-02-11T01:38:31.521Z,86.51
2018-02-11T01:39:36.222Z,86.50
2018-02-11T01:40:41.064Z,86.43
2018-02-11T01:41:45.812Z,86.37
2018-02-11T01:42:50.854Z,86.34
2018-02-11T01:43:55.578Z,86.30
2018-02-11T01:45:00.494Z,86.37
2018-02-11T01:46:05.246Z,86.28
2018-02-11T01:47:09.961Z,86.17
2018-02-11T01:48:14.736Z,86.15
2018-02-11T01:49:19.665Z,86.15
2018-02-11T01:50:24.297Z,86.12
2018-02-11T01:51:28.947Z,86.10
2018-02-11T01:52:33.629Z,86.08
2018-02-11T01:53:38.286Z,85.95
2018-02-11T01:54:42.979Z,85.97
2018-02-11T01:55:48.052Z,85.96
2018-02-11T01:56:52.764Z,86.00
2018-02-11T01:57:57.351Z,86.02
2018-02-11T01:59:01.971Z,86.09
2018-02-11T02:00:06.673Z,86.17
2018-02-11T02:01:11.217Z,86.29
2018-02-11T02:02:16.042Z,86.54
2018-02-11T02:03:20.522Z,87.03
2018-02-11T02:04:25.027Z,87.41
2018-02-11T02:05:29.531Z,87.75
2018-02-11T02:06:34.014Z,88.05
2018-02-11T02:07:39.330Z,88.42
2018-02-11T02:08:44.192Z,88.80
2018-02-11T02:09:48.756Z,89.21
2018-02-11T02:10:53.425Z,89.62
2018-02-11T02:11:58.266Z,89.94
2018-02-11T02:13:03.049Z,90.20
2018-02-11T02:14:07.825Z,90.43
2018-02-11T02:15:12.897Z,90.66
2018-02-11T02:16:17.644Z,90.87
2018-02-11T02:17:22.448Z,91.07
2018-02-11T02:18:27.167Z,91.26
2018-02-11T02:19:31.876Z,91.40
2018-02-11T02:20:36.666Z,91.53
2018-02-11T02:21:41.533Z,91.59
2018-02-11T02:22:46.219Z,91.62
2018-02-11T02:23:50.885Z,91.63
2018-02-11T02:24:55.574Z,91.66
2018-02-11T02:26:00.305Z,91.66
2018-02-11T02:27:05.016Z,91.62
2018-02-11T02:28:09.941Z,91.58
2018-02-11T02:29:14.569Z,91.55
2018-02-11T02:30:19.243Z,91.51
2018-02-11T02:31:23.888Z,91.55
2018-02-11T02:32:28.523Z,91.52
2018-02-11T02:33:33.183Z,91.51
2018-02-11T02:34:38.110Z,91.49
2018-02-11T02:35:42.753Z,91.46
2018-02-11T02:36:47.403Z,91.39
2018-02-11T02:37:52.027Z,91.33
2018-02-11T02:38:56.697Z,91.26
2018-02-11T02:40:01.361Z,91.19
2018-02-11T02:41:06.297Z,91.19
2018-02-11T02:42:10.957Z,91.17
2018-02-11T02:43:15.615Z,91.12
2018-02-11T02:44:20.245Z,91.12
2018-02-11T02:45:24.875Z,91.08
2018-02-11T02:46:29.539Z,91.04
2018-02-11T02:47:34.492Z,91.00
2018-02-11T02:48:39.122Z,90.99
2018-02-11T02:49:43.812Z,91.00
2018-02-11T02:50:48.454Z,91.02
2018-02-11T02:51:53.493Z,90.97
2018-02-11T02:52:58.135Z,90.90
2018-02-11T02:54:03.059Z,90.86
2018-02-11T02:55:07.702Z,90.79
2018-02-11T02:56:12.328Z,90.79
2018-02-11T02:57:16.961Z,90.78
2018-02-11T02:58:21.633Z,90.75
2018-02-11T02:59:26.322Z,90.72
2018-02-11T03:00:31.298Z,90.70
2018-02-11T03:01:36.098Z,90.67
2018-02-11T03:02:40.795Z,90.58
2018-02-11T03:03:45.515Z,90.55
2018-02-11T03:04:50.189Z,90.50
2018-02-11T03:05:54.832Z,90.45
2018-02-11T03:06:59.773Z,90.44
2018-02-11T03:08:04.609Z,90.42
2018-02-11T03:09:09.310Z,90.40
2018-02-11T03:10:13.965Z,90.38
2018-02-11T03:11:18.677Z,90.40
2018-02-11T03:12:23.366Z,90.38
2018-02-11T03:13:28.325Z,90.41
2018-02-11T03:14:33.048Z,90.41
2018-02-11T03:15:37.714Z,90.42
2018-02-11T03:16:42.403Z,90.43
2018-02-11T03:17:47.073Z,90.37
2018-02-11T03:18:51.764Z,90.31
2018-02-11T03:19:56.724Z,90.26
2018-02-11T03:21:01.535Z,90.21
2018-02-11T03:22:06.198Z,90.18
2018-02-11T03:23:10.871Z,90.16
2018-02-11T03:24:15.550Z,90.14
2018-02-11T03:25:20.269Z,90.08
2018-02-11T03:26:25.269Z,90.08
2018-02-11T03:27:29.906Z,90.04
2018-02-11T03:28:34.545Z,90.03
2018-02-11T03:29:39.436Z,90.01
2018-02-11T03:30:44.211Z,89.97
2018-02-11T03:31:48.891Z,90.01
2018-02-11T03:32:54.196Z,90.01
2018-02-11T03:33:58.970Z,90.02
2018-02-11T03:35:03.617Z,90.05
2018-02-11T03:36:08.326Z,90.10
2018-02-11T03:37:13.012Z,90.12
2018-02-11T03:38:17.675Z,90.11
2018-02-11T03:39:22.367Z,90.12
2018-02-11T03:40:27.014Z,90.22
2018-02-11T03:41:31.747Z,90.27
2018-02-11T03:42:36.378Z,90.31
2018-02-11T03:43:41.050Z,90.37
2018-02-11T03:44:45.711Z,90.42
2018-02-11T03:45:50.693Z,90.56
2018-02-11T03:46:55.374Z,90.78
2018-02-11T03:48:00.337Z,91.10
2018-02-11T03:49:05.034Z,91.43
2018-02-11T03:50:09.781Z,91.69
2018-02-11T03:51:14.293Z,92.01
2018-02-11T03:52:19.151Z,92.29
2018-02-11T03:53:23.784Z,92.50
2018-02-11T03:54:28.363Z,92.77
2018-02-11T03:55:33.028Z,93.14
2018-02-11T03:56:37.725Z,93.44
2018-02-11T03:57:42.395Z,93.65
2018-02-11T03:58:47.297Z,93.82
2018-02-11T03:59:52.810Z,93.97
2018-02-11T04:00:57.387Z,94.13
2018-02-11T04:02:01.971Z,94.23
2018-02-11T04:03:06.630Z,94.28
2018-02-11T04:04:11.224Z,94.17
2018-02-11T04:05:16.148Z,94.13
2018-02-11T04:06:20.731Z,94.15
2018-02-11T04:07:25.425Z,94.14
2018-02-11T04:08:30.113Z,94.11
2018-02-11T04:09:34.810Z,94.00
2018-02-11T04:10:39.474Z,93.85
2018-02-11T04:11:44.410Z,93.78
2018-02-11T04:12:49.042Z,93.79
2018-02-11T04:13:53.708Z,93.85
2018-02-11T04:14:58.388Z,94.01
2018-02-11T04:16:03.114Z,94.20
2018-02-11T04:17:07.765Z,94.39
2018-02-11T04:18:12.818Z,94.54
2018-02-11T04:19:17.539Z,94.68
2018-02-11T04:20:22.217Z,94.80
2018-02-11T04:21:26.891Z,94.94
2018-02-11T04:22:31.556Z,95.06
2018-02-11T04:23:36.218Z,95.10
2018-02-11T04:24:41.196Z,95.14
2018-02-11T04:25:45.887Z,95.17
2018-02-11T04:26:50.571Z,95.26
2018-02-11T04:27:55.254Z,95.26
2018-02-11T04:28:59.966Z,95.26
2018-02-11T04:30:04.626Z,95.31
2018-02-11T04:31:09.617Z,95.29
2018-02-11T04:32:14.511Z,95.26
2018-02-11T04:33:19.141Z,95.20
2018-02-11T04:34:24.180Z,95.20
2018-02-11T04:35:28.878Z,95.22
2018-02-11T04:36:33.553Z,95.27
2018-02-11T04:37:38.663Z,95.26
2018-02-11T04:38:43.367Z,95.22
2018-02-11T04:39:48.050Z,95.15
2018-02-11T04:40:52.725Z,95.06
2018-02-11T04:41:57.403Z,95.01
2018-02-11T04:43:02.173Z,94.97
2018-02-11T04:44:07.257Z,94.93
2018-02-11T04:45:12.018Z,94.91
2018-02-11T04:46:24.255Z,94.86
2018-02-11T04:47:29.253Z,94.82
2018-02-11T04:48:34.000Z,94.77
2018-02-11T04:49:38.691Z,94.79
2018-02-11T04:50:43.652Z,94.81
2018-02-11T04:51:48.405Z,94.85
2018-02-11T04:52:53.208Z,94.88
2018-02-11T04:53:58.017Z,94.91
2018-02-11T04:55:02.855Z,95.04
2018-02-11T04:56:07.647Z,95.14
2018-02-11T04:57:12.408Z,95.24
2018-02-11T04:58:17.186Z,95.46
2018-02-11T04:59:21.975Z,95.71
2018-02-11T05:00:26.702Z,95.94
2018-02-11T05:01:31.515Z,96.18
2018-02-11T05:02:36.576Z,96.43
2018-02-11T05:03:41.336Z,96.60
2018-02-11T05:04:46.145Z,96.74
2018-02-11T05:05:50.887Z,96.91
2018-02-11T05:06:55.646Z,97.01
2018-02-11T05:08:00.311Z,97.15
2018-02-11T05:09:05.471Z,97.20
2018-02-11T05:10:10.159Z,97.27
2018-02-11T05:11:14.891Z,97.27
2018-02-11T05:12:19.678Z,97.30
2018-02-11T05:13:24.426Z,97.27
2018-02-11T05:14:29.281Z,97.29
2018-02-11T05:15:34.328Z,97.37
2018-02-11T05:16:39.111Z,97.41
2018-02-11T05:17:43.855Z,97.46
2018-02-11T05:18:48.535Z,97.57
2018-02-11T05:19:53.228Z,97.65
2018-02-11T05:20:57.890Z,97.76
2018-02-11T05:22:02.890Z,97.82
2018-02-11T05:23:07.606Z,97.89
2018-02-11T05:24:12.302Z,97.93
2018-02-11T05:25:16.987Z,98.05
2018-02-11T05:26:21.628Z,98.19
2018-02-11T05:27:26.406Z,98.29
2018-02-11T05:28:31.238Z,98.36
2018-02-11T05:29:35.812Z,98.41
2018-02-11T05:30:40.384Z,98.45
2018-02-11T05:31:45.113Z,98.49
2018-02-11T05:32:49.900Z,98.55
2018-02-11T05:33:54.637Z,98.60
2018-02-11T05:34:59.775Z,98.71
2018-02-11T05:36:04.495Z,98.77
2018-02-11T05:37:09.261Z,98.81
2018-02-11T05:38:14.016Z,98.89
2018-02-11T05:39:19.761Z,98.98
2018-02-11T05:40:24.456Z,98.94
2018-02-11T05:41:29.460Z,98.91
2018-02-11T05:42:34.170Z,98.95
2018-02-11T05:43:38.790Z,99.00
2018-02-11T05:44:43.421Z,99.03
2018-02-11T05:45:48.141Z,99.09
2018-02-11T05:46:52.918Z,99.11
2018-02-11T05:47:57.938Z,99.16
2018-02-11T05:49:02.649Z,99.23
2018-02-11T05:50:07.381Z,99.29
2018-02-11T05:51:12.081Z,99.33
2018-02-11T05:52:16.806Z,99.35
2018-02-11T05:53:21.514Z,99.40
2018-02-11T05:54:26.534Z,99.49
2018-02-11T05:55:31.269Z,99.50
2018-02-11T05:56:36.031Z,99.55
2018-02-11T05:57:40.749Z,99.61
2018-02-11T05:58:45.459Z,99.67
2018-02-11T05:59:50.148Z,99.72
2018-02-11T06:00:54.824Z,99.83
2018-02-11T06:01:59.565Z,99.95
2018-02-11T06:03:04.329Z,100.00
2018-02-11T06:04:09.044Z,100.00
2018-02-11T06:05:13.719Z,100.00
2018-02-11T06:06:18.414Z,100.00
2018-02-11T06:07:23.382Z,100.00
2018-02-11T06:08:28.055Z,100.00
2018-02-11T06:09:32.694Z,100.00
2018-02-11T06:10:37.369Z,100.00
2018-02-11T06:11:42.031Z,100.00
2018-02-11T06:12:46.735Z,100.00
2018-02-11T06:13:51.762Z,100.00
2018-02-11T06:14:56.563Z,100.00
2018-02-11T06:16:01.641Z,100.00
2018-02-11T06:17:07.246Z,100.00
2018-02-11T06:18:11.963Z,100.00
2018-02-11T06:19:16.676Z,100.00
2018-02-11T06:20:21.644Z,100.00
2018-02-11T06:21:26.304Z,100.00
2018-02-11T06:22:30.988Z,100.00
2018-02-11T06:23:35.657Z,100.00
2018-02-11T06:24:40.425Z,100.00
2018-02-11T06:25:45.251Z,100.00
2018-02-11T06:26:50.315Z,100.00
2018-02-11T06:27:55.060Z,100.00
2018-02-11T06:28:59.841Z,100.00
2018-02-11T06:30:04.587Z,100.00
2018-02-11T06:31:09.330Z,100.00
2018-02-11T06:32:14.084Z,100.00
2018-02-11T06:33:19.182Z,100.00
2018-02-11T06:34:23.969Z,100.00
2018-02-11T06:35:28.714Z,100.00
2018-02-11T06:36:33.514Z,100.00
2018-02-11T06:37:38.321Z,100.00
2018-02-11T06:38:43.113Z,100.00
2018-02-11T06:39:48.190Z,100.00
2018-02-11T06:40:52.982Z,100.00
2018-02-11T06:41:57.742Z,100.00
2018-02-11T06:43:02.482Z,100.00
2018-02-11T06:44:07.205Z,100.00
2018-02-11T06:45:11.878Z,100.00
2018-02-11T06:46:16.847Z,100.00
2018-02-11T06:47:21.517Z,100.00
2018-02-11T06:48:26.243Z,100.00
2018-02-11T06:49:30.914Z,100.00
2018-02-11T06:50:35.689Z,100.00
2018-02-11T06:51:40.405Z,100.00
2018-02-11T06:52:45.351Z,100.00
2018-02-11T06:53:50.035Z,100.00
2018-02-11T06:54:54.743Z,100.00
2018-02-11T06:55:59.673Z,100.00
2018-02-11T06:57:04.342Z,100.00
2018-02-11T06:58:09.082Z,100.00
2018-02-11T06:59:14.302Z,100.00
2018-02-11T07:00:19.222Z,100.00
2018-02-11T07:01:23.846Z,100.00
2018-02-11T07:02:28.483Z,100.00
2018-02-11T07:03:33.193Z,100.00
2018-02-11T07:04:37.811Z,100.00
2018-02-11T07:05:42.782Z,100.00
2018-02-11T07:06:47.567Z,100.00
2018-02-11T07:07:52.336Z,100.00
2018-02-11T07:08:57.211Z,100.00
2018-02-11T07:10:01.964Z,100.00
2018-02-11T07:11:06.767Z,100.00
2018-02-11T07:12:11.939Z,100.00
2018-02-11T07:13:16.694Z,100.00
2018-02-11T07:14:21.406Z,100.00
2018-02-11T07:15:26.140Z,100.00
2018-02-11T07:16:30.831Z,100.00
2018-02-11T07:17:35.615Z,100.00
2018-02-11T07:18:40.631Z,100.00
2018-02-11T07:19:45.297Z,100.00
2018-02-11T07:20:49.927Z,100.00
2018-02-11T07:21:54.581Z,100.00
2018-02-11T07:22:59.245Z,100.00
2018-02-11T07:24:03.902Z,100.00
2018-02-11T07:25:08.864Z,100.00
2018-02-11T07:26:13.540Z,100.00
2018-02-11T07:27:18.195Z,100.00
2018-02-11T07:28:22.747Z,100.00
2018-02-11T07:29:27.371Z,100.00
2018-02-11T07:30:31.916Z,100.00
2018-02-11T07:31:36.866Z,100.00
2018-02-11T07:32:41.354Z,100.00
2018-02-11T07:33:46.010Z,100.00
2018-02-11T07:34:50.682Z,100.00
2018-02-11T07:35:55.381Z,100.00
2018-02-11T07:37:00.317Z,100.00
2018-02-11T07:38:04.948Z,100.00
2018-02-11T07:39:09.507Z,100.00
2018-02-11T07:40:14.077Z,100.00
2018-02-11T07:41:18.659Z,100.00
2018-02-11T07:42:23.252Z,100.00
2018-02-11T07:43:28.100Z,100.00
2018-02-11T07:44:32.668Z,100.00
2018-02-11T07:45:37.277Z,100.00
2018-02-11T07:46:41.922Z,100.00
2018-02-11T07:47:46.576Z,100.00
2018-02-11T07:48:51.230Z,100.00
2018-02-11T07:49:56.211Z,100.00
2018-02-11T07:51:00.853Z,100.00
2018-02-11T07:52:05.408Z,100.00
2018-02-11T07:53:10.042Z,100.00
2018-02-11T07:54:14.652Z,100.00
2018-02-11T07:55:19.266Z,100.00
2018-02-11T07:56:24.088Z,100.00
2018-02-11T07:57:28.647Z,100.00
2018-02-11T07:58:33.279Z,100.00
2018-02-11T07:59:37.956Z,100.00
2018-02-11T08:00:42.583Z,100.00
2018-02-11T08:01:47.302Z,100.00
2018-02-11T08:02:52.209Z,100.00
2018-02-11T08:03:56.827Z,100.00
2018-02-11T08:05:01.478Z,100.00
2018-02-11T08:06:06.116Z,100.00
2018-02-11T08:07:10.746Z,100.00
2018-02-11T08:08:15.367Z,100.00
2018-02-11T08:09:20.279Z,100.00
2018-02-11T08:10:24.966Z,100.00
2018-02-11T08:11:29.873Z,100.00
2018-02-11T08:12:34.547Z,100.00
2018-02-11T08:13:39.256Z,100.00
2018-02-11T08:14:43.873Z,100.00
2018-02-11T08:15:48.819Z,100.00
2018-02-11T08:16:53.402Z,100.00
2018-02-11T08:17:57.976Z,100.00
2018-02-11T08:19:02.557Z,100.00
2018-02-11T08:20:07.139Z,100.00
2018-02-11T08:21:12.333Z,100.00
2018-02-11T08:22:17.270Z,100.00
2018-02-11T08:23:21.911Z,100.00
2018-02-11T08:24:26.564Z,100.00
2018-02-11T08:25:31.301Z,100.00
2018-02-11T08:26:35.954Z,100.00
2018-02-11T08:27:40.634Z,100.00
2018-02-11T08:28:45.787Z,100.00
2018-02-11T08:29:50.683Z,100.00
2018-02-11T08:30:55.686Z,100.00
2018-02-11T08:32:00.506Z,100.00
2018-02-11T08:33:05.217Z,100.00
2018-02-11T08:34:10.331Z,100.00
2018-02-11T08:35:15.521Z,100.00
2018-02-11T08:36:20.243Z,100.00
2018-02-11T08:37:24.993Z,100.00
2018-02-11T08:38:29.797Z,100.00
2018-02-11T08:39:34.532Z,100.00
2018-02-11T08:40:39.213Z,100.00
2018-02-11T08:41:44.211Z,100.00
2018-02-11T08:42:48.854Z,100.00
2018-02-11T08:43:53.541Z,100.00
2018-02-11T08:44:58.212Z,100.00
2018-02-11T08:46:02.846Z,100.00
2018-02-11T08:47:07.738Z,100.00
2018-02-11T08:48:12.369Z,100.00
2018-02-11T08:49:17.591Z,100.00
2018-02-11T08:50:22.757Z,100.00
2018-02-11T08:51:27.997Z,100.00
2018-02-11T08:52:34.106Z,100.00
2018-02-11T08:53:39.544Z,100.00
2018-02-11T08:54:44.640Z,100.00
2018-02-11T08:55:49.911Z,100.00
2018-02-11T08:56:54.531Z,100.00
2018-02-11T08:57:59.380Z,100.00
2018-02-11T08:59:04.075Z,100.00
2018-02-11T09:00:09.231Z,100.00
2018-02-11T09:01:13.934Z,100.00
2018-02-11T09:02:18.680Z,100.00
2018-02-11T09:03:23.354Z,100.00
2018-02-11T09:04:28.051Z,99.96
2018-02-11T09:05:33.532Z,99.93
2018-02-11T09:06:38.571Z,99.87
2018-02-11T09:07:43.390Z,99.79
2018-02-11T09:08:48.153Z,99.75
2018-02-11T09:09:52.899Z,99.67
2018-02-11T09:10:57.672Z,99.58
2018-02-11T09:12:02.630Z,99.52
2018-02-11T09:13:07.735Z,99.50
2018-02-11T09:14:12.271Z,99.51
2018-02-11T09:15:16.708Z,99.53
2018-02-11T09:16:21.289Z,99.57
2018-02-11T09:17:25.959Z,99.61
2018-02-11T09:18:31.085Z,99.66
2018-02-11T09:19:36.363Z,99.73
2018-02-11T09:20:41.341Z,99.85
2018-02-11T09:21:46.033Z,99.97
2018-02-11T09:22:51.074Z,99.97
2018-02-11T09:23:56.962Z,100.00
2018-02-11T09:25:02.274Z,100.00
2018-02-11T09:26:07.029Z,100.00
2018-02-11T09:27:12.545Z,100.00
2018-02-11T09:28:17.582Z,100.00
2018-02-11T09:29:22.870Z,100.00
2018-02-11T09:30:27.675Z,100.00
2018-02-11T09:31:33.185Z,100.00
2018-02-11T09:32:38.130Z,99.98
2018-02-11T09:33:43.293Z,99.88
2018-02-11T09:34:47.989Z,99.83
2018-02-11T09:35:52.836Z,99.76
2018-02-11T09:36:57.662Z,99.72
2018-02-11T09:38:02.814Z,99.63
2018-02-11T09:39:07.511Z,99.54
2018-02-11T09:40:12.190Z,99.46
2018-02-11T09:41:16.892Z,99.40
2018-02-11T09:42:21.635Z,99.35
2018-02-11T09:43:26.534Z,99.30
2018-02-11T09:44:31.731Z,99.26
2018-02-11T09:45:36.965Z,99.16
2018-02-11T09:46:41.973Z,99.22
2018-02-11T09:47:48.392Z,99.30
2018-02-11T09:48:54.455Z,99.32
2018-02-11T09:49:59.235Z,99.35
2018-02-11T09:51:05.098Z,99.36
2018-02-11T09:52:12.593Z,99.41
2018-02-11T09:53:17.882Z,99.51
2018-02-11T09:54:22.760Z,99.58
2018-02-11T09:55:27.462Z,99.61
2018-02-11T09:56:32.680Z,99.64
2018-02-11T09:57:37.783Z,99.70
2018-02-11T09:58:42.947Z,99.74
2018-02-11T09:59:47.953Z,99.81
2018-02-11T10:00:52.706Z,99.85
2018-02-11T10:01:57.457Z,99.89
2018-02-11T10:03:02.525Z,99.95
2018-02-11T10:04:07.759Z,99.98
2018-02-11T10:05:12.556Z,99.95
2018-02-11T10:06:17.271Z,99.92
2018-02-11T10:07:21.968Z,99.89
2018-02-11T10:08:26.656Z,99.85
2018-02-11T10:09:31.356Z,99.87
2018-02-11T10:10:36.316Z,99.91
2018-02-11T10:11:40.947Z,99.93
2018-02-11T10:12:46.025Z,99.93
2018-02-11T10:13:50.845Z,99.94
2018-02-11T10:14:55.341Z,99.92
2018-02-11T10:15:59.816Z,99.87
2018-02-11T10:17:04.913Z,99.87
2018-02-11T10:18:09.660Z,99.98
2018-02-11T10:19:14.748Z,100.00
2018-02-11T10:20:19.821Z,100.00
2018-02-11T10:21:24.903Z,100.00
2018-02-11T10:22:30.711Z,100.00
2018-02-11T10:23:35.751Z,100.00
2018-02-11T10:24:40.558Z,100.00
2018-02-11T10:25:45.393Z,100.00
2018-02-11T10:26:50.182Z,100.00
2018-02-11T10:27:55.130Z,100.00
2018-02-11T10:29:00.200Z,100.00
2018-02-11T10:30:05.795Z,100.00
2018-02-11T10:31:11.723Z,100.00
2018-02-11T10:32:17.032Z,100.00
2018-02-11T10:33:23.223Z,100.00
2018-02-11T10:34:29.133Z,100.00
2018-02-11T10:35:35.543Z,100.00
2018-02-11T10:36:42.299Z,100.00
2018-02-11T10:37:47.398Z,100.00
2018-02-11T10:38:52.486Z,100.00
2018-02-11T10:39:57.562Z,100.00
2018-02-11T10:41:03.189Z,100.00
2018-02-11T10:42:08.982Z,100.00
2018-02-11T10:43:13.947Z,99.97
2018-02-11T10:44:19.707Z,99.92
2018-02-11T10:45:24.947Z,99.88
2018-02-11T10:46:30.727Z,99.77
2018-02-11T10:47:36.024Z,99.75
2018-02-11T10:48:41.235Z,99.69
2018-02-11T10:49:46.975Z,99.58
2018-02-11T10:50:51.805Z,99.58
2018-02-11T10:51:57.028Z,99.59
2018-02-11T10:53:01.883Z,99.60
2018-02-11T10:54:07.125Z,99.56
2018-02-11T10:55:12.017Z,99.51
2018-02-11T10:56:18.578Z,99.38
2018-02-11T10:57:24.048Z,99.29
2018-02-11T10:58:30.440Z,99.27
2018-02-11T10:59:35.919Z,99.23
2018-02-11T11:00:42.486Z,99.13
2018-02-11T11:01:49.271Z,99.08
2018-02-11T11:02:56.835Z,99.04
2018-02-11T11:04:03.146Z,98.94
2018-02-11T11:05:08.214Z,98.90
2018-02-11T11:06:13.381Z,98.85
2018-02-11T11:07:19.703Z,98.75
2018-02-11T11:08:25.580Z,98.72
2018-02-11T11:09:31.036Z,98.72
2018-02-11T11:10:38.501Z,98.72
2018-02-11T11:11:45.587Z,98.71
2018-02-11T11:12:53.224Z,98.67
2018-02-11T11:14:00.779Z,98.71
2018-02-11T11:15:07.111Z,98.73
2018-02-11T11:16:12.375Z,98.87
2018-02-11T11:17:18.398Z,98.98
2018-02-11T11:18:24.271Z,99.08
2018-02-11T11:19:30.920Z,99.12
2018-02-11T11:20:37.733Z,99.16
2018-02-11T11:21:44.230Z,99.20
2018-02-11T11:22:50.198Z,99.30
2018-02-11T11:23:56.444Z,99.36
2018-02-11T11:25:03.515Z,99.37
2018-02-11T11:26:11.728Z,99.42
2018-02-11T11:27:17.102Z,99.42
2018-02-11T11:28:22.797Z,99.44
2018-02-11T11:29:31.082Z,99.38
2018-02-11T11:30:36.529Z,99.35
2018-02-11T11:31:43.393Z,99.31
2018-02-11T11:32:52.173Z,99.30
2018-02-11T11:33:59.871Z,99.25
2018-02-11T11:35:07.355Z,99.35
2018-02-11T11:36:14.809Z,99.34
2018-02-11T11:37:19.897Z,99.33
2018-02-11T11:38:25.664Z,99.32
2018-02-11T11:39:32.135Z,99.25
2018-02-11T11:40:38.284Z,99.14
2018-02-11T11:41:45.507Z,98.98
2018-02-11T11:42:53.284Z,98.92
2018-02-11T11:44:00.864Z,98.80
2018-02-11T11:45:08.041Z,98.71
2018-02-11T11:46:16.264Z,98.63
2018-02-11T11:47:23.515Z,98.55
2018-02-11T11:48:30.157Z,98.50
2018-02-11T11:49:36.686Z,98.47
2018-02-11T11:50:44.250Z,98.44
2018-02-11T11:51:52.035Z,98.36
2018-02-11T11:52:59.308Z,98.31
2018-02-11T11:54:06.583Z,98.20
2018-02-11T11:55:12.787Z,98.12
2018-02-11T11:56:21.122Z,98.06
2018-02-11T11:57:28.532Z,98.02
2018-02-11T11:58:34.086Z,97.88
2018-02-11T11:59:41.161Z,97.81
2018-02-11T12:00:49.829Z,97.71
2018-02-11T12:01:54.885Z,97.58
2018-02-11T12:03:02.487Z,97.45
2018-02-11T12:04:09.802Z,97.28
2018-02-11T12:05:17.620Z,97.11
2018-02-11T12:06:25.265Z,96.88
2018-02-11T12:07:32.745Z,96.82
2018-02-11T12:08:39.234Z,96.75
2018-02-11T12:09:45.817Z,96.75
2018-02-11T12:10:53.328Z,96.51
2018-02-11T12:12:02.209Z,96.43
2018-02-11T12:13:09.550Z,96.35
2018-02-11T12:14:15.829Z,96.27
2018-02-11T12:15:22.703Z,96.18
2018-02-11T12:16:32.503Z,96.05
2018-02-11T12:17:38.130Z,95.82
2018-02-11T12:18:46.626Z,95.60
2018-02-11T12:19:52.443Z,95.05
2018-02-11T12:21:01.111Z,94.95
2018-02-11T12:22:08.683Z,94.93
2018-02-11T12:23:18.370Z,94.84
2018-02-11T12:24:25.839Z,94.67
2018-02-11T12:25:33.467Z,94.50
2018-02-11T12:26:40.358Z,94.56
2018-02-11T12:27:46.183Z,94.47
2018-02-11T12:28:52.830Z,94.46
2018-02-11T12:29:59.940Z,94.11
2018-02-11T12:31:07.022Z,93.48
2018-02-11T12:32:13.334Z,93.38
2018-02-11T12:33:21.335Z,93.45
2018-02-11T12:34:28.286Z,93.59
2018-02-11T12:35:36.101Z,93.62
2018-02-11T12:36:44.602Z,93.71
2018-02-11T12:37:51.074Z,93.63
2018-02-11T12:38:58.432Z,93.62
2018-02-11T12:40:05.431Z,93.49
2018-02-11T12:41:12.233Z,93.49
2018-02-11T12:42:20.550Z,93.39
2018-02-11T12:43:28.325Z,93.37
2018-02-11T12:44:36.844Z,93.32
2018-02-11T12:45:45.890Z,93.37
2018-02-11T12:46:51.899Z,93.24
2018-02-11T12:48:00.962Z,93.29
2018-02-11T12:49:08.588Z,93.24
2018-02-11T12:50:16.140Z,93.24
2018-02-11T12:51:23.718Z,93.22
2018-02-11T12:52:29.812Z,93.30
2018-02-11T12:53:35.814Z,93.22
2018-02-11T12:54:42.198Z,93.09
2018-02-11T12:55:49.219Z,93.07
2018-02-11T12:56:55.403Z,93.08
2018-02-11T12:58:01.697Z,93.09
2018-02-11T12:59:09.922Z,92.97
2018-02-11T13:00:17.484Z,92.88
2018-02-11T13:01:26.753Z,92.80
2018-02-11T13:02:34.313Z,92.80
2018-02-11T13:03:42.960Z,92.67
2018-02-11T13:04:52.566Z,92.63
2018-02-11T13:05:59.477Z,92.65
2018-02-11T13:07:05.995Z,92.52
2018-02-11T13:08:12.096Z,92.54
2018-02-11T13:09:19.866Z,92.57
2018-02-11T13:10:26.873Z,92.54
2018-02-11T13:11:34.626Z,92.50
2018-02-11T13:12:41.895Z,92.42
2018-02-11T13:13:48.922Z,92.44
2018-02-11T13:14:56.445Z,92.36
2018-02-11T13:16:03.402Z,92.27
2018-02-11T13:17:09.054Z,92.26
2018-02-11T13:18:15.605Z,92.28
2018-02-11T13:19:23.086Z,92.31
2018-02-11T13:20:30.581Z,92.17
2018-02-11T13:21:38.038Z,92.19
2018-02-11T13:22:45.436Z,92.24
2018-02-11T13:23:53.469Z,92.18
2018-02-11T13:25:02.569Z,92.26
2018-02-11T13:26:09.157Z,92.22
2018-02-11T13:27:14.475Z,92.02
2018-02-11T13:28:21.400Z,91.63
2018-02-11T13:29:28.148Z,91.35
2018-02-11T13:30:35.699Z,91.26
2018-02-11T13:31:45.229Z,91.17
2018-02-11T13:32:54.184Z,91.06
2018-02-11T13:34:01.152Z,91.02
2018-02-11T13:35:07.354Z,90.87
2018-02-11T13:36:13.486Z,90.89
2018-02-11T13:37:19.584Z,90.93
2018-02-11T13:38:27.328Z,90.97
2018-02-11T13:39:34.774Z,90.91
2018-02-11T13:40:42.481Z,90.91
2018-02-11T13:41:50.054Z,91.05
2018-02-11T13:42:57.184Z,91.12
2018-02-11T13:44:05.657Z,91.13
2018-02-11T13:45:13.277Z,91.22
2018-02-11T13:46:19.482Z,91.29
2018-02-11T13:47:26.345Z,91.30
2018-02-11T13:48:33.668Z,91.35
2018-02-11T13:49:40.773Z,91.45
2018-02-11T13:50:48.616Z,91.39
2018-02-11T13:51:56.650Z,91.38
2018-02-11T13:53:03.154Z,91.39
2018-02-11T13:54:09.351Z,91.35